sensor_id;sensor_type;location;lat;lon;timestamp;P1;durP1;ratioP1;P2;durP2;ratioP2
19907;SDS011;10116;53.112;7.356;2022-08-19T00:01:44;0.70;;;0.70;;
19907;SDS011;10116;53.112;7.356;2022-08-19T00:04:12;0.67;;;0.67;;
19907;SDS011;10116;53.112;7.356;2022-08-19T00:06:40;0.80;;;0.60;;
19907;SDS011;10116;53.112;7.356;2022-08-19T00:09:07;0.67;;;0.67;;
19907;SDS011;10116;53.112;7.356;2022-08-19T00:11:35;0.73;;;0.67;;
19907;SDS011;10116;53.112;7.356;2022-08-19T00:14:02;0.77;;;0.70;;
19907;SDS011;10116;53.112;7.356;2022-08-19T00:16:29;0.60;;;0.60;;
19907;SDS011;10116;53.112;7.356;2022-08-19T00:18:55;0.60;;;0.60;;
19907;SDS011;10116;53.112;7.356;2022-08-19T00:21:21;2.10;;;0.70;;
19907;SDS011;10116;53.112;7.356;2022-08-19T00:23:48;1.67;;;0.60;;
19907;SDS011;10116;53.112;7.356;2022-08-19T00:26:13;0.77;;;0.77;;
19907;SDS011;10116;53.112;7.356;2022-08-19T00:28:39;0.63;;;0.63;;
19907;SDS011;10116;53.112;7.356;2022-08-19T00:31:06;0.70;;;0.57;;
19907;SDS011;10116;53.112;7.356;2022-08-19T00:33:34;0.80;;;0.80;;
19907;SDS011;10116;53.112;7.356;2022-08-19T00:36:00;0.60;;;0.60;;
19907;SDS011;10116;53.112;7.356;2022-08-19T00:38:29;0.60;;;0.60;;
19907;SDS011;10116;53.112;7.356;2022-08-19T00:40:55;0.70;;;0.70;;
19907;SDS011;10116;53.112;7.356;2022-08-19T00:43:22;0.80;;;0.60;;
19907;SDS011;10116;53.112;7.356;2022-08-19T00:45:50;0.50;;;0.50;;
19907;SDS011;10116;53.112;7.356;2022-08-19T00:48:17;0.60;;;0.60;;
19907;SDS011;10116;53.112;7.356;2022-08-19T00:50:43;0.80;;;0.50;;
19907;SDS011;10116;53.112;7.356;2022-08-19T00:53:13;0.70;;;0.70;;
19907;SDS011;10116;53.112;7.356;2022-08-19T00:55:44;0.70;;;0.70;;
19907;SDS011;10116;53.112;7.356;2022-08-19T00:58:13;0.80;;;0.80;;
19907;SDS011;10116;53.112;7.356;2022-08-19T01:00:42;1.00;;;0.60;;
19907;SDS011;10116;53.112;7.356;2022-08-19T01:03:09;0.40;;;0.40;;
19907;SDS011;10116;53.112;7.356;2022-08-19T01:05:37;0.47;;;0.40;;
19907;SDS011;10116;53.112;7.356;2022-08-19T01:08:06;0.40;;;0.40;;
19907;SDS011;10116;53.112;7.356;2022-08-19T01:10:36;0.43;;;0.40;;
19907;SDS011;10116;53.112;7.356;2022-08-19T01:13:04;0.50;;;0.50;;
19907;SDS011;10116;53.112;7.356;2022-08-19T01:15:31;0.63;;;0.50;;
19907;SDS011;10116;53.112;7.356;2022-08-19T01:18:01;0.47;;;0.43;;
19907;SDS011;10116;53.112;7.356;2022-08-19T01:20:32;0.90;;;0.50;;
19907;SDS011;10116;53.112;7.356;2022-08-19T01:22:59;0.50;;;0.50;;
19907;SDS011;10116;53.112;7.356;2022-08-19T01:25:33;0.50;;;0.50;;
19907;SDS011;10116;53.112;7.356;2022-08-19T01:28:17;0.73;;;0.50;;
19907;SDS011;10116;53.112;7.356;2022-08-19T01:30:45;0.50;;;0.50;;
19907;SDS011;10116;53.112;7.356;2022-08-19T01:33:11;0.50;;;0.40;;
19907;SDS011;10116;53.112;7.356;2022-08-19T01:35:38;0.60;;;0.40;;
19907;SDS011;10116;53.112;7.356;2022-08-19T01:38:05;0.40;;;0.30;;
19907;SDS011;10116;53.112;7.356;2022-08-19T01:40:33;0.40;;;0.40;;
19907;SDS011;10116;53.112;7.356;2022-08-19T01:43:01;0.50;;;0.50;;
19907;SDS011;10116;53.112;7.356;2022-08-19T01:45:28;0.97;;;0.50;;
19907;SDS011;10116;53.112;7.356;2022-08-19T01:47:57;0.40;;;0.40;;
19907;SDS011;10116;53.112;7.356;2022-08-19T01:50:23;1.37;;;0.40;;
19907;SDS011;10116;53.112;7.356;2022-08-19T01:52:49;0.50;;;0.50;;
19907;SDS011;10116;53.112;7.356;2022-08-19T01:55:17;0.50;;;0.50;;
19907;SDS011;10116;53.112;7.356;2022-08-19T01:57:48;0.97;;;0.40;;
19907;SDS011;10116;53.112;7.356;2022-08-19T02:00:17;0.53;;;0.40;;
19907;SDS011;10116;53.112;7.356;2022-08-19T02:02:44;0.90;;;0.60;;
19907;SDS011;10116;53.112;7.356;2022-08-19T02:05:10;1.07;;;0.57;;
19907;SDS011;10116;53.112;7.356;2022-08-19T02:07:37;0.40;;;0.40;;
19907;SDS011;10116;53.112;7.356;2022-08-19T02:10:05;0.60;;;0.40;;
19907;SDS011;10116;53.112;7.356;2022-08-19T02:12:32;0.40;;;0.40;;
19907;SDS011;10116;53.112;7.356;2022-08-19T02:14:58;0.60;;;0.57;;
19907;SDS011;10116;53.112;7.356;2022-08-19T02:17:26;0.40;;;0.40;;
19907;SDS011;10116;53.112;7.356;2022-08-19T02:19:53;1.93;;;0.50;;
19907;SDS011;10116;53.112;7.356;2022-08-19T02:22:20;0.50;;;0.40;;
19907;SDS011;10116;53.112;7.356;2022-08-19T02:24:46;1.53;;;0.50;;
19907;SDS011;10116;53.112;7.356;2022-08-19T02:27:13;1.63;;;0.47;;
19907;SDS011;10116;53.112;7.356;2022-08-19T02:29:39;0.40;;;0.40;;
19907;SDS011;10116;53.112;7.356;2022-08-19T02:32:06;0.80;;;0.70;;
19907;SDS011;10116;53.112;7.356;2022-08-19T02:34:32;0.60;;;0.50;;
19907;SDS011;10116;53.112;7.356;2022-08-19T02:36:58;0.70;;;0.63;;
19907;SDS011;10116;53.112;7.356;2022-08-19T02:39:24;0.60;;;0.50;;
19907;SDS011;10116;53.112;7.356;2022-08-19T02:41:49;0.50;;;0.50;;
19907;SDS011;10116;53.112;7.356;2022-08-19T02:44:16;0.77;;;0.77;;
19907;SDS011;10116;53.112;7.356;2022-08-19T02:46:44;0.80;;;0.57;;
19907;SDS011;10116;53.112;7.356;2022-08-19T02:49:11;0.60;;;0.60;;
19907;SDS011;10116;53.112;7.356;2022-08-19T02:51:38;0.50;;;0.43;;
19907;SDS011;10116;53.112;7.356;2022-08-19T02:54:07;0.90;;;0.60;;
19907;SDS011;10116;53.112;7.356;2022-08-19T02:56:35;0.80;;;0.70;;
19907;SDS011;10116;53.112;7.356;2022-08-19T02:59:02;0.60;;;0.60;;
19907;SDS011;10116;53.112;7.356;2022-08-19T03:01:34;0.60;;;0.60;;
19907;SDS011;10116;53.112;7.356;2022-08-19T03:04:02;1.30;;;0.53;;
19907;SDS011;10116;53.112;7.356;2022-08-19T03:06:29;0.50;;;0.40;;
19907;SDS011;10116;53.112;7.356;2022-08-19T03:08:55;0.53;;;0.53;;
19907;SDS011;10116;53.112;7.356;2022-08-19T03:11:23;0.93;;;0.50;;
19907;SDS011;10116;53.112;7.356;2022-08-19T03:13:50;0.70;;;0.70;;
19907;SDS011;10116;53.112;7.356;2022-08-19T03:16:18;1.47;;;0.60;;
19907;SDS011;10116;53.112;7.356;2022-08-19T03:18:45;0.50;;;0.50;;
19907;SDS011;10116;53.112;7.356;2022-08-19T03:21:17;2.00;;;0.70;;
19907;SDS011;10116;53.112;7.356;2022-08-19T03:23:45;0.60;;;0.60;;
19907;SDS011;10116;53.112;7.356;2022-08-19T03:26:11;0.47;;;0.47;;
19907;SDS011;10116;53.112;7.356;2022-08-19T03:28:39;0.63;;;0.63;;
19907;SDS011;10116;53.112;7.356;2022-08-19T03:31:07;0.53;;;0.53;;
19907;SDS011;10116;53.112;7.356;2022-08-19T03:33:39;1.00;;;0.60;;
19907;SDS011;10116;53.112;7.356;2022-08-19T03:36:09;0.40;;;0.40;;
19907;SDS011;10116;53.112;7.356;2022-08-19T03:38:37;0.60;;;0.60;;
19907;SDS011;10116;53.112;7.356;2022-08-19T03:41:06;0.50;;;0.50;;
19907;SDS011;10116;53.112;7.356;2022-08-19T03:43:35;0.50;;;0.50;;
19907;SDS011;10116;53.112;7.356;2022-08-19T03:46:03;0.87;;;0.70;;
19907;SDS011;10116;53.112;7.356;2022-08-19T03:48:31;0.57;;;0.57;;
19907;SDS011;10116;53.112;7.356;2022-08-19T03:50:58;0.50;;;0.50;;
19907;SDS011;10116;53.112;7.356;2022-08-19T03:53:24;0.60;;;0.60;;
19907;SDS011;10116;53.112;7.356;2022-08-19T03:55:52;0.50;;;0.50;;
19907;SDS011;10116;53.112;7.356;2022-08-19T03:58:18;0.50;;;0.50;;
19907;SDS011;10116;53.112;7.356;2022-08-19T04:00:44;1.30;;;0.43;;
19907;SDS011;10116;53.112;7.356;2022-08-19T04:03:10;0.60;;;0.60;;
19907;SDS011;10116;53.112;7.356;2022-08-19T04:05:35;0.50;;;0.50;;
19907;SDS011;10116;53.112;7.356;2022-08-19T04:08:03;0.97;;;0.60;;
19907;SDS011;10116;53.112;7.356;2022-08-19T04:10:30;0.60;;;0.60;;
19907;SDS011;10116;53.112;7.356;2022-08-19T04:13:00;1.50;;;0.40;;
19907;SDS011;10116;53.112;7.356;2022-08-19T04:15:26;0.60;;;0.57;;
19907;SDS011;10116;53.112;7.356;2022-08-19T04:17:53;0.50;;;0.50;;
19907;SDS011;10116;53.112;7.356;2022-08-19T04:20:19;0.83;;;0.57;;
19907;SDS011;10116;53.112;7.356;2022-08-19T04:22:45;0.97;;;0.63;;
19907;SDS011;10116;53.112;7.356;2022-08-19T04:25:11;0.50;;;0.50;;
19907;SDS011;10116;53.112;7.356;2022-08-19T04:27:36;0.50;;;0.50;;
19907;SDS011;10116;53.112;7.356;2022-08-19T04:30:02;0.40;;;0.40;;
19907;SDS011;10116;53.112;7.356;2022-08-19T04:32:28;0.43;;;0.43;;
19907;SDS011;10116;53.112;7.356;2022-08-19T04:34:56;0.70;;;0.50;;
19907;SDS011;10116;53.112;7.356;2022-08-19T04:37:23;0.97;;;0.57;;
19907;SDS011;10116;53.112;7.356;2022-08-19T04:39:51;0.40;;;0.40;;
19907;SDS011;10116;53.112;7.356;2022-08-19T04:42:35;0.60;;;0.50;;
19907;SDS011;10116;53.112;7.356;2022-08-19T04:45:04;0.40;;;0.40;;
19907;SDS011;10116;53.112;7.356;2022-08-19T04:47:32;0.80;;;0.50;;
19907;SDS011;10116;53.112;7.356;2022-08-19T04:49:58;0.70;;;0.70;;
19907;SDS011;10116;53.112;7.356;2022-08-19T04:52:24;0.50;;;0.50;;
19907;SDS011;10116;53.112;7.356;2022-08-19T04:54:49;0.40;;;0.40;;
19907;SDS011;10116;53.112;7.356;2022-08-19T04:57:15;0.60;;;0.60;;
19907;SDS011;10116;53.112;7.356;2022-08-19T04:59:40;0.40;;;0.40;;
19907;SDS011;10116;53.112;7.356;2022-08-19T05:02:07;0.40;;;0.40;;
19907;SDS011;10116;53.112;7.356;2022-08-19T05:04:34;1.43;;;0.50;;
19907;SDS011;10116;53.112;7.356;2022-08-19T05:07:03;0.60;;;0.50;;
19907;SDS011;10116;53.112;7.356;2022-08-19T05:09:29;0.57;;;0.50;;
19907;SDS011;10116;53.112;7.356;2022-08-19T05:11:55;0.50;;;0.40;;
19907;SDS011;10116;53.112;7.356;2022-08-19T05:14:21;0.50;;;0.40;;
19907;SDS011;10116;53.112;7.356;2022-08-19T05:16:48;0.80;;;0.50;;
19907;SDS011;10116;53.112;7.356;2022-08-19T05:19:13;1.00;;;0.50;;
19907;SDS011;10116;53.112;7.356;2022-08-19T05:21:59;0.50;;;0.50;;
19907;SDS011;10116;53.112;7.356;2022-08-19T05:24:43;0.40;;;0.40;;
19907;SDS011;10116;53.112;7.356;2022-08-19T05:27:09;0.40;;;0.40;;
19907;SDS011;10116;53.112;7.356;2022-08-19T05:29:35;0.50;;;0.50;;
19907;SDS011;10116;53.112;7.356;2022-08-19T05:32:01;0.60;;;0.60;;
19907;SDS011;10116;53.112;7.356;2022-08-19T05:34:29;3.77;;;0.50;;
19907;SDS011;10116;53.112;7.356;2022-08-19T05:36:57;0.60;;;0.60;;
19907;SDS011;10116;53.112;7.356;2022-08-19T05:39:24;0.40;;;0.40;;
19907;SDS011;10116;53.112;7.356;2022-08-19T05:41:53;0.40;;;0.40;;
19907;SDS011;10116;53.112;7.356;2022-08-19T05:44:22;0.40;;;0.40;;
19907;SDS011;10116;53.112;7.356;2022-08-19T05:46:52;0.60;;;0.60;;
19907;SDS011;10116;53.112;7.356;2022-08-19T05:49:19;0.50;;;0.43;;
19907;SDS011;10116;53.112;7.356;2022-08-19T05:51:46;0.40;;;0.40;;
19907;SDS011;10116;53.112;7.356;2022-08-19T05:54:12;0.50;;;0.40;;
19907;SDS011;10116;53.112;7.356;2022-08-19T05:56:39;0.73;;;0.47;;
19907;SDS011;10116;53.112;7.356;2022-08-19T05:59:06;0.50;;;0.50;;
19907;SDS011;10116;53.112;7.356;2022-08-19T06:01:37;0.60;;;0.60;;
19907;SDS011;10116;53.112;7.356;2022-08-19T06:04:04;0.50;;;0.50;;
19907;SDS011;10116;53.112;7.356;2022-08-19T06:06:31;0.80;;;0.50;;
19907;SDS011;10116;53.112;7.356;2022-08-19T06:08:59;0.90;;;0.63;;
19907;SDS011;10116;53.112;7.356;2022-08-19T06:11:39;0.60;;;0.50;;
19907;SDS011;10116;53.112;7.356;2022-08-19T06:14:09;0.60;;;0.50;;
19907;SDS011;10116;53.112;7.356;2022-08-19T06:16:37;0.50;;;0.50;;
19907;SDS011;10116;53.112;7.356;2022-08-19T06:19:05;2.20;;;0.70;;
19907;SDS011;10116;53.112;7.356;2022-08-19T06:21:36;0.80;;;0.50;;
19907;SDS011;10116;53.112;7.356;2022-08-19T06:24:04;0.60;;;0.60;;
19907;SDS011;10116;53.112;7.356;2022-08-19T06:26:33;0.80;;;0.70;;
19907;SDS011;10116;53.112;7.356;2022-08-19T06:28:59;1.30;;;0.60;;
19907;SDS011;10116;53.112;7.356;2022-08-19T06:31:26;2.73;;;0.70;;
19907;SDS011;10116;53.112;7.356;2022-08-19T06:33:53;1.33;;;0.77;;
19907;SDS011;10116;53.112;7.356;2022-08-19T06:36:23;2.40;;;0.90;;
19907;SDS011;10116;53.112;7.356;2022-08-19T06:38:55;1.80;;;0.60;;
19907;SDS011;10116;53.112;7.356;2022-08-19T06:41:22;1.00;;;1.00;;
19907;SDS011;10116;53.112;7.356;2022-08-19T06:43:52;1.47;;;0.97;;
19907;SDS011;10116;53.112;7.356;2022-08-19T06:46:19;0.70;;;0.70;;
19907;SDS011;10116;53.112;7.356;2022-08-19T06:48:45;0.73;;;0.60;;
19907;SDS011;10116;53.112;7.356;2022-08-19T06:51:15;1.63;;;0.80;;
19907;SDS011;10116;53.112;7.356;2022-08-19T06:53:48;2.20;;;1.30;;
19907;SDS011;10116;53.112;7.356;2022-08-19T06:56:16;1.00;;;1.00;;
19907;SDS011;10116;53.112;7.356;2022-08-19T06:58:45;0.90;;;0.90;;
19907;SDS011;10116;53.112;7.356;2022-08-19T07:01:11;1.50;;;1.20;;
19907;SDS011;10116;53.112;7.356;2022-08-19T07:03:38;0.90;;;0.90;;
19907;SDS011;10116;53.112;7.356;2022-08-19T07:06:07;0.80;;;0.80;;
19907;SDS011;10116;53.112;7.356;2022-08-19T07:08:35;1.47;;;1.37;;
19907;SDS011;10116;53.112;7.356;2022-08-19T07:11:05;4.63;;;1.50;;
19907;SDS011;10116;53.112;7.356;2022-08-19T07:13:32;1.30;;;1.20;;
19907;SDS011;10116;53.112;7.356;2022-08-19T07:16:12;1.40;;;1.30;;
19907;SDS011;10116;53.112;7.356;2022-08-19T07:18:39;1.73;;;1.00;;
19907;SDS011;10116;53.112;7.356;2022-08-19T07:21:06;3.07;;;1.40;;
19907;SDS011;10116;53.112;7.356;2022-08-19T07:23:32;1.10;;;1.10;;
19907;SDS011;10116;53.112;7.356;2022-08-19T07:26:03;1.17;;;1.10;;
19907;SDS011;10116;53.112;7.356;2022-08-19T07:28:37;5.03;;;1.37;;
19907;SDS011;10116;53.112;7.356;2022-08-19T07:31:05;1.23;;;1.13;;
19907;SDS011;10116;53.112;7.356;2022-08-19T07:33:43;1.40;;;1.30;;
19907;SDS011;10116;53.112;7.356;2022-08-19T07:36:10;1.77;;;1.40;;
19907;SDS011;10116;53.112;7.356;2022-08-19T07:38:39;2.70;;;1.30;;
19907;SDS011;10116;53.112;7.356;2022-08-19T07:41:09;3.73;;;1.60;;
19907;SDS011;10116;53.112;7.356;2022-08-19T07:43:36;2.37;;;1.30;;
19907;SDS011;10116;53.112;7.356;2022-08-19T07:46:01;1.43;;;1.33;;
19907;SDS011;10116;53.112;7.356;2022-08-19T07:48:27;2.43;;;1.63;;
19907;SDS011;10116;53.112;7.356;2022-08-19T07:50:54;1.80;;;1.10;;
19907;SDS011;10116;53.112;7.356;2022-08-19T07:53:22;1.43;;;1.40;;
19907;SDS011;10116;53.112;7.356;2022-08-19T07:55:49;2.80;;;1.60;;
19907;SDS011;10116;53.112;7.356;2022-08-19T07:58:16;1.73;;;1.63;;
19907;SDS011;10116;53.112;7.356;2022-08-19T08:00:45;1.53;;;1.33;;
19907;SDS011;10116;53.112;7.356;2022-08-19T08:03:12;5.67;;;1.90;;
19907;SDS011;10116;53.112;7.356;2022-08-19T08:05:38;1.87;;;1.77;;
19907;SDS011;10116;53.112;7.356;2022-08-19T08:08:23;8.53;;;1.80;;
19907;SDS011;10116;53.112;7.356;2022-08-19T08:11:07;3.63;;;1.40;;
19907;SDS011;10116;53.112;7.356;2022-08-19T08:13:33;2.80;;;1.40;;
19907;SDS011;10116;53.112;7.356;2022-08-19T08:16:00;1.40;;;1.40;;
19907;SDS011;10116;53.112;7.356;2022-08-19T08:18:26;5.40;;;1.57;;
19907;SDS011;10116;53.112;7.356;2022-08-19T08:20:52;2.20;;;1.37;;
19907;SDS011;10116;53.112;7.356;2022-08-19T08:23:18;5.80;;;1.57;;
19907;SDS011;10116;53.112;7.356;2022-08-19T08:25:47;2.10;;;1.30;;
19907;SDS011;10116;53.112;7.356;2022-08-19T08:28:13;1.80;;;1.40;;
19907;SDS011;10116;53.112;7.356;2022-08-19T08:30:40;1.60;;;1.57;;
19907;SDS011;10116;53.112;7.356;2022-08-19T08:33:07;6.57;;;1.40;;
19907;SDS011;10116;53.112;7.356;2022-08-19T08:35:33;1.50;;;1.40;;
19907;SDS011;10116;53.112;7.356;2022-08-19T08:37:58;1.73;;;1.27;;
19907;SDS011;10116;53.112;7.356;2022-08-19T08:43:28;1.20;;;1.20;;
19907;SDS011;10116;53.112;7.356;2022-08-19T08:46:04;1.80;;;1.70;;
19907;SDS011;10116;53.112;7.356;2022-08-19T08:48:45;2.07;;;1.50;;
19907;SDS011;10116;53.112;7.356;2022-08-19T08:51:42;1.43;;;1.33;;
19907;SDS011;10116;53.112;7.356;2022-08-19T08:54:14;1.40;;;1.30;;
19907;SDS011;10116;53.112;7.356;2022-08-19T08:56:43;1.90;;;1.60;;
19907;SDS011;10116;53.112;7.356;2022-08-19T08:59:30;1.37;;;1.27;;
19907;SDS011;10116;53.112;7.356;2022-08-19T09:01:59;1.73;;;1.63;;
19907;SDS011;10116;53.112;7.356;2022-08-19T09:04:26;1.40;;;1.30;;
19907;SDS011;10116;53.112;7.356;2022-08-19T09:06:55;2.90;;;1.50;;
19907;SDS011;10116;53.112;7.356;2022-08-19T09:09:46;1.40;;;1.30;;
19907;SDS011;10116;53.112;7.356;2022-08-19T09:15:07;1.23;;;1.23;;
19907;SDS011;10116;53.112;7.356;2022-08-19T09:17:36;1.23;;;1.10;;
19907;SDS011;10116;53.112;7.356;2022-08-19T09:20:12;1.73;;;1.37;;
19907;SDS011;10116;53.112;7.356;2022-08-19T09:22:46;1.53;;;1.43;;
19907;SDS011;10116;53.112;7.356;2022-08-19T09:25:15;1.50;;;1.00;;
19907;SDS011;10116;53.112;7.356;2022-08-19T09:27:42;1.20;;;1.07;;
19907;SDS011;10116;53.112;7.356;2022-08-19T09:30:30;1.20;;;1.20;;
19907;SDS011;10116;53.112;7.356;2022-08-19T09:32:59;1.50;;;1.40;;
19907;SDS011;10116;53.112;7.356;2022-08-19T09:35:25;1.57;;;1.47;;
19907;SDS011;10116;53.112;7.356;2022-08-19T09:37:53;1.40;;;1.40;;
19907;SDS011;10116;53.112;7.356;2022-08-19T09:40:22;2.10;;;1.30;;
19907;SDS011;10116;53.112;7.356;2022-08-19T09:42:47;1.40;;;1.30;;
19907;SDS011;10116;53.112;7.356;2022-08-19T09:45:17;1.30;;;1.20;;
19907;SDS011;10116;53.112;7.356;2022-08-19T09:47:51;1.07;;;1.07;;
19907;SDS011;10116;53.112;7.356;2022-08-19T09:50:17;1.50;;;1.40;;
19907;SDS011;10116;53.112;7.356;2022-08-19T09:52:43;1.40;;;1.30;;
19907;SDS011;10116;53.112;7.356;2022-08-19T09:55:09;2.10;;;1.53;;
19907;SDS011;10116;53.112;7.356;2022-08-19T09:57:36;1.00;;;1.00;;
19907;SDS011;10116;53.112;7.356;2022-08-19T10:00:05;1.27;;;1.27;;
19907;SDS011;10116;53.112;7.356;2022-08-19T10:02:32;1.17;;;1.17;;
19907;SDS011;10116;53.112;7.356;2022-08-19T10:04:58;1.00;;;1.00;;
19907;SDS011;10116;53.112;7.356;2022-08-19T10:07:42;1.13;;;1.10;;
19907;SDS011;10116;53.112;7.356;2022-08-19T10:10:08;1.33;;;1.23;;
19907;SDS011;10116;53.112;7.356;2022-08-19T10:12:34;1.00;;;1.00;;
19907;SDS011;10116;53.112;7.356;2022-08-19T10:15:00;1.93;;;1.40;;
19907;SDS011;10116;53.112;7.356;2022-08-19T10:17:26;1.30;;;1.30;;
19907;SDS011;10116;53.112;7.356;2022-08-19T10:19:52;1.30;;;1.30;;
19907;SDS011;10116;53.112;7.356;2022-08-19T10:22:18;1.30;;;1.30;;
19907;SDS011;10116;53.112;7.356;2022-08-19T10:24:45;1.20;;;1.10;;
19907;SDS011;10116;53.112;7.356;2022-08-19T10:27:11;1.20;;;1.10;;
19907;SDS011;10116;53.112;7.356;2022-08-19T10:29:38;1.20;;;1.20;;
19907;SDS011;10116;53.112;7.356;2022-08-19T10:32:05;1.67;;;1.57;;
19907;SDS011;10116;53.112;7.356;2022-08-19T10:34:33;1.20;;;1.20;;
19907;SDS011;10116;53.112;7.356;2022-08-19T10:37:01;1.03;;;1.03;;
19907;SDS011;10116;53.112;7.356;2022-08-19T10:39:30;1.20;;;1.20;;
19907;SDS011;10116;53.112;7.356;2022-08-19T10:41:57;1.33;;;1.20;;
19907;SDS011;10116;53.112;7.356;2022-08-19T10:44:23;1.20;;;1.10;;
19907;SDS011;10116;53.112;7.356;2022-08-19T10:46:49;1.00;;;1.00;;
19907;SDS011;10116;53.112;7.356;2022-08-19T10:49:16;1.63;;;1.40;;
19907;SDS011;10116;53.112;7.356;2022-08-19T10:51:43;1.40;;;1.40;;
19907;SDS011;10116;53.112;7.356;2022-08-19T10:54:47;1.27;;;1.17;;
19907;SDS011;10116;53.112;7.356;2022-08-19T10:57:31;1.40;;;1.30;;
19907;SDS011;10116;53.112;7.356;2022-08-19T10:59:57;0.90;;;0.90;;
19907;SDS011;10116;53.112;7.356;2022-08-19T11:02:23;1.03;;;1.03;;
19907;SDS011;10116;53.112;7.356;2022-08-19T11:04:48;1.43;;;1.33;;
19907;SDS011;10116;53.112;7.356;2022-08-19T11:07:16;1.20;;;1.20;;
19907;SDS011;10116;53.112;7.356;2022-08-19T11:09:42;1.10;;;1.10;;
19907;SDS011;10116;53.112;7.356;2022-08-19T11:12:08;1.10;;;1.00;;
19907;SDS011;10116;53.112;7.356;2022-08-19T11:14:35;1.17;;;1.17;;
19907;SDS011;10116;53.112;7.356;2022-08-19T11:17:02;1.27;;;1.27;;
19907;SDS011;10116;53.112;7.356;2022-08-19T11:19:28;1.17;;;1.17;;
19907;SDS011;10116;53.112;7.356;2022-08-19T11:21:54;1.10;;;1.10;;
19907;SDS011;10116;53.112;7.356;2022-08-19T11:24:21;1.00;;;1.00;;
19907;SDS011;10116;53.112;7.356;2022-08-19T11:26:49;1.00;;;1.00;;
19907;SDS011;10116;53.112;7.356;2022-08-19T11:29:17;1.27;;;1.17;;
19907;SDS011;10116;53.112;7.356;2022-08-19T11:31:45;1.20;;;1.20;;
19907;SDS011;10116;53.112;7.356;2022-08-19T11:34:18;1.10;;;1.10;;
19907;SDS011;10116;53.112;7.356;2022-08-19T11:36:50;1.60;;;1.50;;
19907;SDS011;10116;53.112;7.356;2022-08-19T11:39:17;1.20;;;1.20;;
19907;SDS011;10116;53.112;7.356;2022-08-19T11:41:45;1.10;;;1.10;;
19907;SDS011;10116;53.112;7.356;2022-08-19T11:44:11;1.10;;;1.10;;
19907;SDS011;10116;53.112;7.356;2022-08-19T11:46:38;1.30;;;1.30;;
19907;SDS011;10116;53.112;7.356;2022-08-19T11:49:05;2.07;;;1.43;;
19907;SDS011;10116;53.112;7.356;2022-08-19T11:51:34;1.10;;;1.10;;
19907;SDS011;10116;53.112;7.356;2022-08-19T11:54:00;1.17;;;1.17;;
19907;SDS011;10116;53.112;7.356;2022-08-19T11:56:26;1.63;;;1.53;;
19907;SDS011;10116;53.112;7.356;2022-08-19T11:58:53;1.00;;;1.00;;
19907;SDS011;10116;53.112;7.356;2022-08-19T12:01:20;1.57;;;1.47;;
19907;SDS011;10116;53.112;7.356;2022-08-19T12:03:48;1.40;;;1.10;;
19907;SDS011;10116;53.112;7.356;2022-08-19T12:06:17;1.63;;;1.30;;
19907;SDS011;10116;53.112;7.356;2022-08-19T12:08:44;1.77;;;1.67;;
19907;SDS011;10116;53.112;7.356;2022-08-19T12:11:12;1.10;;;1.10;;
19907;SDS011;10116;53.112;7.356;2022-08-19T12:13:38;1.30;;;1.20;;
19907;SDS011;10116;53.112;7.356;2022-08-19T12:16:08;1.00;;;1.00;;
19907;SDS011;10116;53.112;7.356;2022-08-19T12:18:37;1.30;;;1.30;;
19907;SDS011;10116;53.112;7.356;2022-08-19T12:21:03;1.50;;;1.40;;
19907;SDS011;10116;53.112;7.356;2022-08-19T12:23:28;1.30;;;1.30;;
19907;SDS011;10116;53.112;7.356;2022-08-19T12:25:54;1.20;;;1.20;;
19907;SDS011;10116;53.112;7.356;2022-08-19T12:28:22;1.20;;;1.20;;
19907;SDS011;10116;53.112;7.356;2022-08-19T12:30:49;1.20;;;1.20;;
19907;SDS011;10116;53.112;7.356;2022-08-19T12:33:16;1.40;;;1.30;;
19907;SDS011;10116;53.112;7.356;2022-08-19T12:35:48;1.10;;;1.10;;
19907;SDS011;10116;53.112;7.356;2022-08-19T12:38:15;1.30;;;1.30;;
19907;SDS011;10116;53.112;7.356;2022-08-19T12:40:41;1.20;;;1.20;;
19907;SDS011;10116;53.112;7.356;2022-08-19T12:43:09;1.20;;;1.20;;
19907;SDS011;10116;53.112;7.356;2022-08-19T12:45:36;1.37;;;1.37;;
19907;SDS011;10116;53.112;7.356;2022-08-19T12:48:02;1.23;;;1.23;;
19907;SDS011;10116;53.112;7.356;2022-08-19T12:50:29;1.60;;;1.50;;
19907;SDS011;10116;53.112;7.356;2022-08-19T12:52:55;1.10;;;1.10;;
19907;SDS011;10116;53.112;7.356;2022-08-19T12:55:22;1.08;;;1.08;;
19907;SDS011;10116;53.112;7.356;2022-08-19T12:57:49;1.17;;;1.13;;
19907;SDS011;10116;53.112;7.356;2022-08-19T13:00:16;1.20;;;1.20;;
19907;SDS011;10116;53.112;7.356;2022-08-19T13:02:46;1.10;;;1.10;;
19907;SDS011;10116;53.112;7.356;2022-08-19T13:05:20;1.02;;;1.02;;
19907;SDS011;10116;53.112;7.356;2022-08-19T13:07:48;1.43;;;1.33;;
19907;SDS011;10116;53.112;7.356;2022-08-19T13:10:17;1.20;;;1.20;;
19907;SDS011;10116;53.112;7.356;2022-08-19T13:12:45;1.30;;;1.30;;
19907;SDS011;10116;53.112;7.356;2022-08-19T13:15:12;1.40;;;1.40;;
19907;SDS011;10116;53.112;7.356;2022-08-19T13:17:39;1.20;;;1.20;;
19907;SDS011;10116;53.112;7.356;2022-08-19T13:20:09;1.13;;;1.13;;
19907;SDS011;10116;53.112;7.356;2022-08-19T13:22:36;1.50;;;1.40;;
19907;SDS011;10116;53.112;7.356;2022-08-19T13:25:02;1.40;;;1.30;;
19907;SDS011;10116;53.112;7.356;2022-08-19T13:27:29;1.40;;;1.40;;
19907;SDS011;10116;53.112;7.356;2022-08-19T13:29:54;1.43;;;1.33;;
19907;SDS011;10116;53.112;7.356;2022-08-19T13:32:38;1.10;;;1.10;;
19907;SDS011;10116;53.112;7.356;2022-08-19T13:35:23;1.30;;;1.30;;
19907;SDS011;10116;53.112;7.356;2022-08-19T13:37:48;1.00;;;1.00;;
19907;SDS011;10116;53.112;7.356;2022-08-19T13:40:15;1.57;;;1.57;;
19907;SDS011;10116;53.112;7.356;2022-08-19T13:42:47;1.30;;;1.30;;
19907;SDS011;10116;53.112;7.356;2022-08-19T13:45:15;1.27;;;1.27;;
19907;SDS011;10116;53.112;7.356;2022-08-19T13:47:44;1.30;;;1.30;;
19907;SDS011;10116;53.112;7.356;2022-08-19T13:50:15;1.30;;;1.20;;
19907;SDS011;10116;53.112;7.356;2022-08-19T13:52:42;1.23;;;1.20;;
19907;SDS011;10116;53.112;7.356;2022-08-19T13:55:10;1.60;;;1.50;;
19907;SDS011;10116;53.112;7.356;2022-08-19T13:57:36;1.20;;;1.20;;
19907;SDS011;10116;53.112;7.356;2022-08-19T14:00:08;1.10;;;1.10;;
19907;SDS011;10116;53.112;7.356;2022-08-19T14:02:36;1.23;;;1.23;;
19907;SDS011;10116;53.112;7.356;2022-08-19T14:05:04;1.20;;;1.20;;
19907;SDS011;10116;53.112;7.356;2022-08-19T14:07:31;1.10;;;1.10;;
19907;SDS011;10116;53.112;7.356;2022-08-19T14:09:57;1.40;;;1.40;;
19907;SDS011;10116;53.112;7.356;2022-08-19T14:12:23;1.35;;;1.35;;
19907;SDS011;10116;53.112;7.356;2022-08-19T14:14:49;1.40;;;1.40;;
19907;SDS011;10116;53.112;7.356;2022-08-19T14:17:14;1.53;;;1.43;;
19907;SDS011;10116;53.112;7.356;2022-08-19T14:19:40;1.20;;;1.20;;
19907;SDS011;10116;53.112;7.356;2022-08-19T14:22:06;1.75;;;1.65;;
19907;SDS011;10116;53.112;7.356;2022-08-19T14:24:32;1.10;;;1.10;;
19907;SDS011;10116;53.112;7.356;2022-08-19T14:26:58;1.10;;;1.10;;
19907;SDS011;10116;53.112;7.356;2022-08-19T14:29:25;1.10;;;1.10;;
19907;SDS011;10116;53.112;7.356;2022-08-19T14:31:53;0.90;;;0.90;;
19907;SDS011;10116;53.112;7.356;2022-08-19T14:34:19;1.00;;;1.00;;
19907;SDS011;10116;53.112;7.356;2022-08-19T14:36:44;1.40;;;1.30;;
19907;SDS011;10116;53.112;7.356;2022-08-19T14:39:10;1.20;;;1.20;;
19907;SDS011;10116;53.112;7.356;2022-08-19T14:41:36;1.40;;;1.30;;
19907;SDS011;10116;53.112;7.356;2022-08-19T14:44:05;2.90;;;1.37;;
19907;SDS011;10116;53.112;7.356;2022-08-19T14:46:31;1.50;;;1.50;;
19907;SDS011;10116;53.112;7.356;2022-08-19T14:48:57;1.30;;;1.30;;
19907;SDS011;10116;53.112;7.356;2022-08-19T14:51:23;1.10;;;1.10;;
19907;SDS011;10116;53.112;7.356;2022-08-19T14:53:51;1.35;;;1.35;;
19907;SDS011;10116;53.112;7.356;2022-08-19T14:56:18;1.42;;;1.33;;
19907;SDS011;10116;53.112;7.356;2022-08-19T14:58:47;1.40;;;1.40;;
19907;SDS011;10116;53.112;7.356;2022-08-19T15:01:16;1.10;;;1.10;;